Nantucket Memorial Airport Nantucket US
ICAO: KACK
IATA: ACK
Category: Medium
Scheduled Services: Yes

Elevation: 47 ft
TransAlt. 18000 ft.

Airport Communications:
CAPE APP/DEP:126.1
ATIS:127.5
CLNC DEL:119.375
CTAF:118.3
GND:121.7
BRIDGEPORT RDO:116.2
TWR:118.3
UNICOM:122.95

KACK Zoom In..

Runways:

(A) RW 06 length 6303 ft width 150 ft
ILS 109.10 / hdg 61

(B) RW 12 length 2696 ft width 50 ft
---- / hdg 123

(C) RW 15 length 4500 ft width 100 ft
---- / hdg 151

(D) RW 24 length 6303 ft width 150 ft
ILS 109.10 / hdg 241

(E) RW 30 length 2696 ft width 50 ft
---- / hdg 303

(F) RW 33 length 4500 ft width 100 ft
---- / hdg 331

Location; KACK
Day. 23 / Time. 02.53 Zulu
* Altimeter: 30.20
* Temperature: 20° c. 68°f.
* Wind from: 140° Speed 13 kn.
Dewpoint: 20° c.
Visibility: 6 Statute Miles.
Clouds: Few 1800 ft.
Clouds: Scattered 8000 ft.
Conditions: Mist.

KACK 230253Z AUTO 14013KT 6SM BR FEW018 SCT080 20/20 A3020 RMK AO2 SLP225 T02000200 53013 $


Wind From 140°
Speed 13 kn.

 
 
jpsmedia.com for Web Design worldairports.se 2018   terms of use